sensor_id;sensor_type;location;lat;lon;timestamp;P1;durP1;ratioP1;P2;durP2;ratioP2
25932;SDS011;13731;51.166;4.474;2023-04-24T00:00:10;116.45;;;108.53;;
25932;SDS011;13731;51.166;4.474;2023-04-24T00:02:41;123.32;;;114.63;;
25932;SDS011;13731;51.166;4.474;2023-04-24T00:05:10;122.53;;;114.30;;
25932;SDS011;13731;51.166;4.474;2023-04-24T00:07:36;109.35;;;102.20;;
25932;SDS011;13731;51.166;4.474;2023-04-24T00:10:02;130.95;;;122.35;;
25932;SDS011;13731;51.166;4.474;2023-04-24T00:12:28;120.07;;;112.13;;
25932;SDS011;13731;51.166;4.474;2023-04-24T00:14:54;131.85;;;122.80;;
25932;SDS011;13731;51.166;4.474;2023-04-24T00:17:20;131.02;;;122.20;;
25932;SDS011;13731;51.166;4.474;2023-04-24T00:19:47;168.70;;;157.27;;
25932;SDS011;13731;51.166;4.474;2023-04-24T00:22:13;158.88;;;148.50;;
25932;SDS011;13731;51.166;4.474;2023-04-24T00:24:40;143.35;;;134.00;;
25932;SDS011;13731;51.166;4.474;2023-04-24T00:27:06;166.48;;;155.90;;
25932;SDS011;13731;51.166;4.474;2023-04-24T00:29:31;150.80;;;141.02;;
25932;SDS011;13731;51.166;4.474;2023-04-24T00:31:57;155.40;;;145.45;;
25932;SDS011;13731;51.166;4.474;2023-04-24T00:34:23;161.27;;;150.57;;
25932;SDS011;13731;51.166;4.474;2023-04-24T00:36:49;157.15;;;146.93;;
25932;SDS011;13731;51.166;4.474;2023-04-24T00:39:20;162.60;;;151.18;;
25932;SDS011;13731;51.166;4.474;2023-04-24T00:41:48;167.38;;;157.18;;
25932;SDS011;13731;51.166;4.474;2023-04-24T00:44:14;165.88;;;155.45;;
25932;SDS011;13731;51.166;4.474;2023-04-24T00:46:40;172.73;;;161.93;;
25932;SDS011;13731;51.166;4.474;2023-04-24T00:49:07;158.85;;;149.07;;
25932;SDS011;13731;51.166;4.474;2023-04-24T00:51:33;172.55;;;162.27;;
25932;SDS011;13731;51.166;4.474;2023-04-24T00:54:00;164.23;;;153.80;;
25932;SDS011;13731;51.166;4.474;2023-04-24T00:56:27;156.75;;;147.20;;
25932;SDS011;13731;51.166;4.474;2023-04-24T00:58:53;156.95;;;147.63;;
25932;SDS011;13731;51.166;4.474;2023-04-24T01:01:21;162.48;;;152.18;;
25932;SDS011;13731;51.166;4.474;2023-04-24T01:03:48;170.20;;;160.10;;
25932;SDS011;13731;51.166;4.474;2023-04-24T01:06:15;177.67;;;167.07;;
25932;SDS011;13731;51.166;4.474;2023-04-24T01:08:42;168.90;;;158.82;;
25932;SDS011;13731;51.166;4.474;2023-04-24T01:11:10;168.07;;;157.98;;
25932;SDS011;13731;51.166;4.474;2023-04-24T01:13:37;162.60;;;152.75;;
25932;SDS011;13731;51.166;4.474;2023-04-24T01:16:03;167.68;;;157.48;;
25932;SDS011;13731;51.166;4.474;2023-04-24T01:18:29;156.63;;;147.07;;
25932;SDS011;13731;51.166;4.474;2023-04-24T01:20:59;167.10;;;157.20;;
25932;SDS011;13731;51.166;4.474;2023-04-24T01:23:27;153.30;;;144.32;;
25932;SDS011;13731;51.166;4.474;2023-04-24T01:25:52;239.63;;;225.45;;
25932;SDS011;13731;51.166;4.474;2023-04-24T01:28:19;169.80;;;159.98;;
25932;SDS011;13731;51.166;4.474;2023-04-24T01:30:45;168.02;;;158.07;;
25932;SDS011;13731;51.166;4.474;2023-04-24T01:33:11;164.43;;;154.48;;
25932;SDS011;13731;51.166;4.474;2023-04-24T01:35:37;167.10;;;157.27;;
25932;SDS011;13731;51.166;4.474;2023-04-24T01:38:03;165.50;;;155.60;;
25932;SDS011;13731;51.166;4.474;2023-04-24T01:40:30;158.77;;;149.30;;
25932;SDS011;13731;51.166;4.474;2023-04-24T01:42:57;166.38;;;156.95;;
25932;SDS011;13731;51.166;4.474;2023-04-24T01:45:24;159.55;;;150.40;;
25932;SDS011;13731;51.166;4.474;2023-04-24T01:47:50;155.85;;;147.23;;
25932;SDS011;13731;51.166;4.474;2023-04-24T01:50:16;147.98;;;139.77;;
25932;SDS011;13731;51.166;4.474;2023-04-24T01:52:42;152.98;;;144.20;;
25932;SDS011;13731;51.166;4.474;2023-04-24T01:55:09;151.20;;;142.30;;
25932;SDS011;13731;51.166;4.474;2023-04-24T01:57:35;140.13;;;132.18;;
25932;SDS011;13731;51.166;4.474;2023-04-24T02:00:02;141.48;;;133.70;;
25932;SDS011;13731;51.166;4.474;2023-04-24T02:02:39;134.30;;;126.53;;
25932;SDS011;13731;51.166;4.474;2023-04-24T02:05:06;133.07;;;125.53;;
25932;SDS011;13731;51.166;4.474;2023-04-24T02:07:35;126.78;;;119.85;;
25932;SDS011;13731;51.166;4.474;2023-04-24T02:10:01;127.07;;;119.47;;
25932;SDS011;13731;51.166;4.474;2023-04-24T02:12:29;138.00;;;130.05;;
25932;SDS011;13731;51.166;4.474;2023-04-24T02:14:55;183.23;;;172.70;;
25932;SDS011;13731;51.166;4.474;2023-04-24T02:17:21;185.10;;;174.20;;
25932;SDS011;13731;51.166;4.474;2023-04-24T02:19:47;127.25;;;120.00;;
25932;SDS011;13731;51.166;4.474;2023-04-24T02:22:13;135.25;;;127.65;;
25932;SDS011;13731;51.166;4.474;2023-04-24T02:24:39;139.75;;;132.10;;
25932;SDS011;13731;51.166;4.474;2023-04-24T02:27:05;134.50;;;127.35;;
25932;SDS011;13731;51.166;4.474;2023-04-24T02:29:31;138.98;;;131.50;;
25932;SDS011;13731;51.166;4.474;2023-04-24T02:31:57;148.93;;;140.65;;
25932;SDS011;13731;51.166;4.474;2023-04-24T02:34:23;180.65;;;170.02;;
25932;SDS011;13731;51.166;4.474;2023-04-24T02:36:49;143.25;;;135.55;;
25932;SDS011;13731;51.166;4.474;2023-04-24T02:39:15;134.95;;;127.72;;
25932;SDS011;13731;51.166;4.474;2023-04-24T02:41:44;180.50;;;170.70;;
25932;SDS011;13731;51.166;4.474;2023-04-24T02:44:09;153.70;;;145.43;;
25932;SDS011;13731;51.166;4.474;2023-04-24T02:46:35;223.23;;;208.77;;
25932;SDS011;13731;51.166;4.474;2023-04-24T02:49:01;155.23;;;146.63;;
25932;SDS011;13731;51.166;4.474;2023-04-24T02:51:28;146.65;;;138.23;;
25932;SDS011;13731;51.166;4.474;2023-04-24T02:53:54;136.70;;;128.73;;
25932;SDS011;13731;51.166;4.474;2023-04-24T02:56:20;140.30;;;132.30;;
25932;SDS011;13731;51.166;4.474;2023-04-24T02:58:46;158.60;;;149.20;;
25932;SDS011;13731;51.166;4.474;2023-04-24T03:01:12;117.90;;;111.03;;
25932;SDS011;13731;51.166;4.474;2023-04-24T03:03:38;282.02;;;261.65;;
25932;SDS011;13731;51.166;4.474;2023-04-24T03:06:04;119.60;;;112.70;;
25932;SDS011;13731;51.166;4.474;2023-04-24T03:08:34;146.57;;;138.52;;
25932;SDS011;13731;51.166;4.474;2023-04-24T03:11:00;123.28;;;116.10;;
25932;SDS011;13731;51.166;4.474;2023-04-24T03:13:26;142.15;;;133.98;;
25932;SDS011;13731;51.166;4.474;2023-04-24T03:15:52;137.95;;;130.15;;
25932;SDS011;13731;51.166;4.474;2023-04-24T03:18:19;135.10;;;127.32;;
25932;SDS011;13731;51.166;4.474;2023-04-24T03:20:46;166.10;;;156.60;;
25932;SDS011;13731;51.166;4.474;2023-04-24T03:23:13;141.55;;;133.23;;
25932;SDS011;13731;51.166;4.474;2023-04-24T03:25:39;136.68;;;129.07;;
25932;SDS011;13731;51.166;4.474;2023-04-24T03:28:06;154.95;;;145.98;;
25932;SDS011;13731;51.166;4.474;2023-04-24T03:30:52;131.77;;;124.22;;
25932;SDS011;13731;51.166;4.474;2023-04-24T03:33:19;134.02;;;126.32;;
25932;SDS011;13731;51.166;4.474;2023-04-24T03:35:57;129.13;;;121.38;;
25932;SDS011;13731;51.166;4.474;2023-04-24T03:38:23;129.93;;;121.93;;
25932;SDS011;13731;51.166;4.474;2023-04-24T03:41:05;130.15;;;122.18;;
25932;SDS011;13731;51.166;4.474;2023-04-24T03:43:39;126.68;;;119.00;;
25932;SDS011;13731;51.166;4.474;2023-04-24T03:46:05;144.63;;;135.82;;
25932;SDS011;13731;51.166;4.474;2023-04-24T03:48:38;120.38;;;113.00;;
25932;SDS011;13731;51.166;4.474;2023-04-24T03:51:05;123.65;;;116.38;;
25932;SDS011;13731;51.166;4.474;2023-04-24T03:53:32;119.22;;;112.20;;
25932;SDS011;13731;51.166;4.474;2023-04-24T03:55:58;121.53;;;114.53;;
25932;SDS011;13731;51.166;4.474;2023-04-24T03:58:25;121.15;;;114.22;;
25932;SDS011;13731;51.166;4.474;2023-04-24T04:00:52;175.85;;;165.50;;
25932;SDS011;13731;51.166;4.474;2023-04-24T04:03:48;129.93;;;122.57;;
25932;SDS011;13731;51.166;4.474;2023-04-24T04:08:45;107.25;;;101.45;;
25932;SDS011;13731;51.166;4.474;2023-04-24T04:11:12;113.30;;;107.05;;
25932;SDS011;13731;51.166;4.474;2023-04-24T04:13:38;153.32;;;144.55;;
25932;SDS011;13731;51.166;4.474;2023-04-24T04:16:04;108.28;;;102.40;;
25932;SDS011;13731;51.166;4.474;2023-04-24T04:18:30;102.90;;;97.03;;
25932;SDS011;13731;51.166;4.474;2023-04-24T04:20:56;122.55;;;115.75;;
25932;SDS011;13731;51.166;4.474;2023-04-24T04:23:22;101.45;;;95.68;;
25932;SDS011;13731;51.166;4.474;2023-04-24T04:26:01;111.03;;;104.80;;
25932;SDS011;13731;51.166;4.474;2023-04-24T04:28:38;97.40;;;92.20;;
25932;SDS011;13731;51.166;4.474;2023-04-24T04:31:04;112.53;;;106.22;;
25932;SDS011;13731;51.166;4.474;2023-04-24T04:33:30;144.85;;;136.43;;
25932;SDS011;13731;51.166;4.474;2023-04-24T04:35:57;164.55;;;155.05;;
25932;SDS011;13731;51.166;4.474;2023-04-24T04:38:25;102.60;;;96.50;;
25932;SDS011;13731;51.166;4.474;2023-04-24T04:41:08;125.18;;;118.13;;
25932;SDS011;13731;51.166;4.474;2023-04-24T04:43:34;114.95;;;108.43;;
25932;SDS011;13731;51.166;4.474;2023-04-24T04:46:02;171.13;;;160.32;;
25932;SDS011;13731;51.166;4.474;2023-04-24T04:48:31;118.40;;;111.53;;
25932;SDS011;13731;51.166;4.474;2023-04-24T04:50:59;207.77;;;193.20;;
25932;SDS011;13731;51.166;4.474;2023-04-24T04:53:26;145.27;;;136.18;;
25932;SDS011;13731;51.166;4.474;2023-04-24T04:55:51;158.88;;;149.05;;
25932;SDS011;13731;51.166;4.474;2023-04-24T04:58:19;119.30;;;111.03;;
25932;SDS011;13731;51.166;4.474;2023-04-24T05:00:49;142.05;;;131.90;;
25932;SDS011;13731;51.166;4.474;2023-04-24T05:03:35;133.68;;;124.43;;
25932;SDS011;13731;51.166;4.474;2023-04-24T05:06:05;153.60;;;142.55;;
25932;SDS011;13731;51.166;4.474;2023-04-24T05:11:01;128.25;;;119.18;;
25932;SDS011;13731;51.166;4.474;2023-04-24T05:13:29;129.57;;;121.03;;
25932;SDS011;13731;51.166;4.474;2023-04-24T05:15:55;134.20;;;125.25;;
25932;SDS011;13731;51.166;4.474;2023-04-24T05:18:21;179.75;;;167.77;;
25932;SDS011;13731;51.166;4.474;2023-04-24T05:20:48;120.88;;;112.07;;
25932;SDS011;13731;51.166;4.474;2023-04-24T05:23:14;128.20;;;119.43;;
25932;SDS011;13731;51.166;4.474;2023-04-24T05:25:42;116.20;;;108.67;;
25932;SDS011;13731;51.166;4.474;2023-04-24T05:28:11;116.95;;;108.88;;
25932;SDS011;13731;51.166;4.474;2023-04-24T05:30:37;123.95;;;115.70;;
25932;SDS011;13731;51.166;4.474;2023-04-24T05:33:03;117.15;;;109.05;;
25932;SDS011;13731;51.166;4.474;2023-04-24T05:35:32;112.13;;;104.45;;
25932;SDS011;13731;51.166;4.474;2023-04-24T05:37:58;114.10;;;106.88;;
25932;SDS011;13731;51.166;4.474;2023-04-24T05:40:24;116.60;;;109.45;;
25932;SDS011;13731;51.166;4.474;2023-04-24T05:42:50;116.15;;;108.70;;
25932;SDS011;13731;51.166;4.474;2023-04-24T05:45:16;109.13;;;102.28;;
25932;SDS011;13731;51.166;4.474;2023-04-24T05:47:42;122.32;;;114.50;;
25932;SDS011;13731;51.166;4.474;2023-04-24T05:50:10;110.30;;;103.43;;
25932;SDS011;13731;51.166;4.474;2023-04-24T05:52:36;115.82;;;108.75;;
25932;SDS011;13731;51.166;4.474;2023-04-24T05:55:07;106.65;;;99.65;;
25932;SDS011;13731;51.166;4.474;2023-04-24T05:57:36;113.03;;;105.78;;
25932;SDS011;13731;51.166;4.474;2023-04-24T06:00:03;105.10;;;98.68;;
25932;SDS011;13731;51.166;4.474;2023-04-24T06:02:38;108.38;;;101.00;;
25932;SDS011;13731;51.166;4.474;2023-04-24T06:05:07;110.78;;;103.55;;
25932;SDS011;13731;51.166;4.474;2023-04-24T06:07:33;114.05;;;106.53;;
25932;SDS011;13731;51.166;4.474;2023-04-24T06:12:35;126.10;;;116.80;;
25932;SDS011;13731;51.166;4.474;2023-04-24T06:15:06;124.85;;;115.53;;
25932;SDS011;13731;51.166;4.474;2023-04-24T06:18:05;111.25;;;103.03;;
25932;SDS011;13731;51.166;4.474;2023-04-24T06:20:31;111.40;;;103.38;;
25932;SDS011;13731;51.166;4.474;2023-04-24T06:22:57;111.03;;;102.93;;
25932;SDS011;13731;51.166;4.474;2023-04-24T06:25:25;110.38;;;102.20;;
25932;SDS011;13731;51.166;4.474;2023-04-24T06:27:51;118.55;;;109.82;;
25932;SDS011;13731;51.166;4.474;2023-04-24T06:30:17;124.50;;;116.30;;
25932;SDS011;13731;51.166;4.474;2023-04-24T06:32:43;116.22;;;107.47;;
25932;SDS011;13731;51.166;4.474;2023-04-24T06:35:09;117.07;;;108.78;;
25932;SDS011;13731;51.166;4.474;2023-04-24T06:37:37;124.55;;;116.07;;
25932;SDS011;13731;51.166;4.474;2023-04-24T06:40:06;141.90;;;132.75;;
25932;SDS011;13731;51.166;4.474;2023-04-24T06:42:33;125.90;;;117.72;;
25932;SDS011;13731;51.166;4.474;2023-04-24T06:45:01;125.68;;;116.55;;
25932;SDS011;13731;51.166;4.474;2023-04-24T06:47:27;123.30;;;114.60;;
25932;SDS011;13731;51.166;4.474;2023-04-24T06:49:53;122.32;;;113.53;;
25932;SDS011;13731;51.166;4.474;2023-04-24T06:52:20;124.07;;;114.68;;
25932;SDS011;13731;51.166;4.474;2023-04-24T06:54:46;124.97;;;115.45;;
25932;SDS011;13731;51.166;4.474;2023-04-24T06:57:12;113.88;;;105.05;;
25932;SDS011;13731;51.166;4.474;2023-04-24T06:59:37;133.05;;;124.00;;
25932;SDS011;13731;51.166;4.474;2023-04-24T07:02:03;126.97;;;117.75;;
25932;SDS011;13731;51.166;4.474;2023-04-24T07:04:30;107.93;;;100.10;;
25932;SDS011;13731;51.166;4.474;2023-04-24T07:06:56;105.00;;;98.13;;
25932;SDS011;13731;51.166;4.474;2023-04-24T07:09:23;218.50;;;203.15;;
25932;SDS011;13731;51.166;4.474;2023-04-24T07:11:52;138.75;;;129.52;;
25932;SDS011;13731;51.166;4.474;2023-04-24T07:14:19;118.38;;;110.68;;
25932;SDS011;13731;51.166;4.474;2023-04-24T07:16:45;105.80;;;98.68;;
25932;SDS011;13731;51.166;4.474;2023-04-24T07:19:11;105.55;;;96.78;;
25932;SDS011;13731;51.166;4.474;2023-04-24T07:21:39;114.05;;;106.63;;
25932;SDS011;13731;51.166;4.474;2023-04-24T07:24:04;102.97;;;96.00;;
25932;SDS011;13731;51.166;4.474;2023-04-24T07:29:00;105.57;;;98.85;;
25932;SDS011;13731;51.166;4.474;2023-04-24T07:31:25;110.03;;;102.88;;
25932;SDS011;13731;51.166;4.474;2023-04-24T07:33:51;107.30;;;100.80;;
25932;SDS011;13731;51.166;4.474;2023-04-24T07:36:17;114.63;;;107.45;;
25932;SDS011;13731;51.166;4.474;2023-04-24T07:38:46;149.05;;;140.48;;
25932;SDS011;13731;51.166;4.474;2023-04-24T07:41:13;134.75;;;126.85;;
25932;SDS011;13731;51.166;4.474;2023-04-24T07:43:39;173.82;;;164.13;;
25932;SDS011;13731;51.166;4.474;2023-04-24T07:46:05;209.75;;;197.80;;
25932;SDS011;13731;51.166;4.474;2023-04-24T07:48:32;155.02;;;145.70;;
25932;SDS011;13731;51.166;4.474;2023-04-24T07:50:57;133.13;;;125.68;;
25932;SDS011;13731;51.166;4.474;2023-04-24T07:53:23;140.38;;;132.30;;
25932;SDS011;13731;51.166;4.474;2023-04-24T07:55:49;128.45;;;121.20;;
25932;SDS011;13731;51.166;4.474;2023-04-24T07:58:15;173.00;;;163.05;;
25932;SDS011;13731;51.166;4.474;2023-04-24T08:00:41;109.68;;;103.05;;
25932;SDS011;13731;51.166;4.474;2023-04-24T08:03:06;121.00;;;113.40;;
25932;SDS011;13731;51.166;4.474;2023-04-24T08:05:32;121.03;;;114.05;;
25932;SDS011;13731;51.166;4.474;2023-04-24T08:07:58;119.95;;;112.53;;
25932;SDS011;13731;51.166;4.474;2023-04-24T08:10:24;148.40;;;139.88;;
25932;SDS011;13731;51.166;4.474;2023-04-24T08:12:50;120.32;;;112.35;;
25932;SDS011;13731;51.166;4.474;2023-04-24T08:15:17;117.13;;;109.70;;
25932;SDS011;13731;51.166;4.474;2023-04-24T08:17:43;117.38;;;110.47;;
25932;SDS011;13731;51.166;4.474;2023-04-24T08:20:10;115.78;;;108.75;;
25932;SDS011;13731;51.166;4.474;2023-04-24T08:22:42;129.68;;;121.97;;
25932;SDS011;13731;51.166;4.474;2023-04-24T08:25:09;237.65;;;222.82;;
25932;SDS011;13731;51.166;4.474;2023-04-24T08:27:36;123.93;;;116.65;;
25932;SDS011;13731;51.166;4.474;2023-04-24T08:30:02;98.65;;;92.40;;
25932;SDS011;13731;51.166;4.474;2023-04-24T08:32:29;109.28;;;102.55;;
25932;SDS011;13731;51.166;4.474;2023-04-24T08:34:55;118.57;;;110.25;;
25932;SDS011;13731;51.166;4.474;2023-04-24T08:37:22;108.95;;;101.90;;
25932;SDS011;13731;51.166;4.474;2023-04-24T08:39:51;120.40;;;112.65;;
25932;SDS011;13731;51.166;4.474;2023-04-24T08:44:44;110.55;;;103.60;;
25932;SDS011;13731;51.166;4.474;2023-04-24T08:47:11;186.45;;;174.85;;
25932;SDS011;13731;51.166;4.474;2023-04-24T08:49:37;125.32;;;117.80;;
25932;SDS011;13731;51.166;4.474;2023-04-24T08:52:07;119.78;;;112.60;;
25932;SDS011;13731;51.166;4.474;2023-04-24T08:54:33;121.25;;;114.18;;
25932;SDS011;13731;51.166;4.474;2023-04-24T08:57:00;128.85;;;121.22;;
25932;SDS011;13731;51.166;4.474;2023-04-24T08:59:29;120.78;;;113.68;;
25932;SDS011;13731;51.166;4.474;2023-04-24T09:01:56;110.03;;;103.97;;
25932;SDS011;13731;51.166;4.474;2023-04-24T09:04:22;93.35;;;87.47;;
25932;SDS011;13731;51.166;4.474;2023-04-24T09:06:54;99.80;;;93.57;;
25932;SDS011;13731;51.166;4.474;2023-04-24T09:09:22;114.15;;;107.20;;
25932;SDS011;13731;51.166;4.474;2023-04-24T09:11:49;96.25;;;90.68;;
25932;SDS011;13731;51.166;4.474;2023-04-24T09:14:16;97.95;;;92.28;;
25932;SDS011;13731;51.166;4.474;2023-04-24T09:16:42;104.57;;;98.57;;
25932;SDS011;13731;51.166;4.474;2023-04-24T09:19:08;101.45;;;95.18;;
25932;SDS011;13731;51.166;4.474;2023-04-24T09:21:35;117.80;;;110.32;;
25932;SDS011;13731;51.166;4.474;2023-04-24T09:24:01;110.43;;;103.63;;
25932;SDS011;13731;51.166;4.474;2023-04-24T09:26:33;115.25;;;108.95;;
25932;SDS011;13731;51.166;4.474;2023-04-24T09:29:00;115.60;;;109.27;;
25932;SDS011;13731;51.166;4.474;2023-04-24T09:31:27;122.38;;;115.10;;
25932;SDS011;13731;51.166;4.474;2023-04-24T09:33:57;105.20;;;98.47;;
25932;SDS011;13731;51.166;4.474;2023-04-24T09:36:46;111.22;;;105.05;;
25932;SDS011;13731;51.166;4.474;2023-04-24T09:39:11;100.22;;;94.18;;
25932;SDS011;13731;51.166;4.474;2023-04-24T09:44:27;94.35;;;89.20;;
25932;SDS011;13731;51.166;4.474;2023-04-24T09:46:54;104.65;;;98.78;;
25932;SDS011;13731;51.166;4.474;2023-04-24T09:49:25;96.30;;;90.45;;
25932;SDS011;13731;51.166;4.474;2023-04-24T09:51:52;175.98;;;165.80;;
25932;SDS011;13731;51.166;4.474;2023-04-24T09:54:27;95.38;;;89.95;;
25932;SDS011;13731;51.166;4.474;2023-04-24T09:56:54;104.97;;;98.25;;
25932;SDS011;13731;51.166;4.474;2023-04-24T09:59:21;120.53;;;113.85;;
25932;SDS011;13731;51.166;4.474;2023-04-24T10:01:48;123.03;;;116.40;;
25932;SDS011;13731;51.166;4.474;2023-04-24T10:04:18;109.85;;;103.32;;
25932;SDS011;13731;51.166;4.474;2023-04-24T10:06:49;69.60;;;65.53;;
25932;SDS011;13731;51.166;4.474;2023-04-24T10:09:17;56.50;;;53.45;;
25932;SDS011;13731;51.166;4.474;2023-04-24T10:11:45;36.85;;;34.45;;
25932;SDS011;13731;51.166;4.474;2023-04-24T10:14:16;51.53;;;49.13;;
25932;SDS011;13731;51.166;4.474;2023-04-24T10:16:44;31.40;;;29.75;;
25932;SDS011;13731;51.166;4.474;2023-04-24T10:19:12;31.63;;;29.83;;
25932;SDS011;13731;51.166;4.474;2023-04-24T10:21:39;57.53;;;54.67;;
25932;SDS011;13731;51.166;4.474;2023-04-24T10:24:10;58.53;;;55.38;;
25932;SDS011;13731;51.166;4.474;2023-04-24T10:26:38;68.28;;;63.88;;
25932;SDS011;13731;51.166;4.474;2023-04-24T10:29:05;49.55;;;46.70;;
25932;SDS011;13731;51.166;4.474;2023-04-24T10:34:01;30.58;;;29.05;;
25932;SDS011;13731;51.166;4.474;2023-04-24T10:36:28;31.58;;;29.65;;
25932;SDS011;13731;51.166;4.474;2023-04-24T10:38:59;33.50;;;30.95;;
25932;SDS011;13731;51.166;4.474;2023-04-24T10:44:04;43.90;;;41.38;;
25932;SDS011;13731;51.166;4.474;2023-04-24T10:46:46;57.45;;;53.45;;
25932;SDS011;13731;51.166;4.474;2023-04-24T10:49:17;50.03;;;47.22;;
25932;SDS011;13731;51.166;4.474;2023-04-24T10:52:00;36.67;;;34.60;;
25932;SDS011;13731;51.166;4.474;2023-04-24T10:59:51;42.72;;;39.45;;
25932;SDS011;13731;51.166;4.474;2023-04-24T11:02:35;45.58;;;43.28;;
25932;SDS011;13731;51.166;4.474;2023-04-24T11:05:03;50.58;;;47.58;;
25932;SDS011;13731;51.166;4.474;2023-04-24T11:07:39;29.92;;;28.20;;
25932;SDS011;13731;51.166;4.474;2023-04-24T11:10:37;39.17;;;37.05;;
25932;SDS011;13731;51.166;4.474;2023-04-24T11:13:10;34.88;;;33.00;;
25932;SDS011;13731;51.166;4.474;2023-04-24T11:15:41;38.28;;;36.20;;
25932;SDS011;13731;51.166;4.474;2023-04-24T11:18:12;30.77;;;29.03;;
25932;SDS011;13731;51.166;4.474;2023-04-24T11:20:41;29.73;;;27.90;;
25932;SDS011;13731;51.166;4.474;2023-04-24T11:23:12;30.67;;;29.05;;
25932;SDS011;13731;51.166;4.474;2023-04-24T11:25:39;26.30;;;24.88;;
25932;SDS011;13731;51.166;4.474;2023-04-24T11:28:06;16.15;;;14.90;;
25932;SDS011;13731;51.166;4.474;2023-04-24T11:30:32;18.20;;;16.67;;
25932;SDS011;13731;51.166;4.474;2023-04-24T11:33:02;17.10;;;16.15;;
25932;SDS011;13731;51.166;4.474;2023-04-24T11:35:29;16.70;;;15.63;;
25932;SDS011;13731;51.166;4.474;2023-04-24T11:37:59;16.70;;;15.90;;
25932;SDS011;13731;51.166;4.474;2023-04-24T11:40:28;12.77;;;11.98;;
25932;SDS011;13731;51.166;4.474;2023-04-24T11:42:54;13.18;;;12.57;;
25932;SDS011;13731;51.166;4.474;2023-04-24T11:45:25;14.05;;;13.13;;
25932;SDS011;13731;51.166;4.474;2023-04-24T11:47:52;15.38;;;13.90;;
25932;SDS011;13731;51.166;4.474;2023-04-24T11:50:18;13.15;;;12.35;;
25932;SDS011;13731;51.166;4.474;2023-04-24T11:52:47;13.88;;;12.30;;
25932;SDS011;13731;51.166;4.474;2023-04-24T11:57:42;13.63;;;12.93;;
25932;SDS011;13731;51.166;4.474;2023-04-24T12:00:15;18.60;;;17.50;;
25932;SDS011;13731;51.166;4.474;2023-04-24T12:02:45;21.90;;;20.70;;
25932;SDS011;13731;51.166;4.474;2023-04-24T12:05:21;27.35;;;26.08;;
25932;SDS011;13731;51.166;4.474;2023-04-24T12:07:48;23.52;;;22.17;;
25932;SDS011;13731;51.166;4.474;2023-04-24T12:10:14;35.83;;;33.75;;
25932;SDS011;13731;51.166;4.474;2023-04-24T12:12:45;33.42;;;31.20;;
25932;SDS011;13731;51.166;4.474;2023-04-24T12:15:12;25.05;;;23.45;;
25932;SDS011;13731;51.166;4.474;2023-04-24T12:17:40;36.72;;;34.42;;
25932;SDS011;13731;51.166;4.474;2023-04-24T12:20:07;29.65;;;28.05;;
25932;SDS011;13731;51.166;4.474;2023-04-24T12:22:52;40.20;;;37.80;;
25932;SDS011;13731;51.166;4.474;2023-04-24T12:25:20;17.73;;;16.48;;
25932;SDS011;13731;51.166;4.474;2023-04-24T12:30:29;18.38;;;17.40;;
25932;SDS011;13731;51.166;4.474;2023-04-24T12:33:05;37.45;;;35.45;;
25932;SDS011;13731;51.166;4.474;2023-04-24T12:35:32;30.40;;;28.70;;
25932;SDS011;13731;51.166;4.474;2023-04-24T12:38:08;31.83;;;30.05;;
25932;SDS011;13731;51.166;4.474;2023-04-24T12:40:35;37.22;;;35.10;;
25932;SDS011;13731;51.166;4.474;2023-04-24T12:43:13;32.95;;;30.83;;
25932;SDS011;13731;51.166;4.474;2023-04-24T12:45:38;27.73;;;25.90;;
25932;SDS011;13731;51.166;4.474;2023-04-24T12:48:04;28.33;;;26.65;;
25932;SDS011;13731;51.166;4.474;2023-04-24T12:50:30;35.40;;;33.10;;
25932;SDS011;13731;51.166;4.474;2023-04-24T12:52:56;34.15;;;32.45;;
25932;SDS011;13731;51.166;4.474;2023-04-24T12:55:22;31.20;;;29.38;;
25932;SDS011;13731;51.166;4.474;2023-04-24T12:57:47;27.15;;;25.15;;
25932;SDS011;13731;51.166;4.474;2023-04-24T13:00:13;20.92;;;19.75;;
25932;SDS011;13731;51.166;4.474;2023-04-24T13:02:39;31.83;;;30.13;;
25932;SDS011;13731;51.166;4.474;2023-04-24T13:05:05;19.98;;;18.88;;
25932;SDS011;13731;51.166;4.474;2023-04-24T13:07:32;21.83;;;20.77;;
25932;SDS011;13731;51.166;4.474;2023-04-24T13:09:58;29.88;;;28.33;;
25932;SDS011;13731;51.166;4.474;2023-04-24T13:12:24;22.60;;;21.27;;
25932;SDS011;13731;51.166;4.474;2023-04-24T13:14:50;26.17;;;23.73;;
25932;SDS011;13731;51.166;4.474;2023-04-24T13:17:16;23.73;;;21.88;;
25932;SDS011;13731;51.166;4.474;2023-04-24T13:19:42;21.45;;;20.02;;
25932;SDS011;13731;51.166;4.474;2023-04-24T13:22:10;18.17;;;17.05;;
25932;SDS011;13731;51.166;4.474;2023-04-24T13:24:36;17.15;;;15.93;;
25932;SDS011;13731;51.166;4.474;2023-04-24T13:27:04;15.40;;;14.23;;
25932;SDS011;13731;51.166;4.474;2023-04-24T13:29:30;16.38;;;15.48;;
25932;SDS011;13731;51.166;4.474;2023-04-24T13:31:56;14.98;;;13.98;;
25932;SDS011;13731;51.166;4.474;2023-04-24T13:34:23;16.45;;;15.55;;
25932;SDS011;13731;51.166;4.474;2023-04-24T13:36:50;15.82;;;14.82;;
25932;SDS011;13731;51.166;4.474;2023-04-24T13:39:20;13.38;;;12.60;;
25932;SDS011;13731;51.166;4.474;2023-04-24T13:41:47;16.45;;;14.23;;
25932;SDS011;13731;51.166;4.474;2023-04-24T13:44:16;13.77;;;12.87;;
25932;SDS011;13731;51.166;4.474;2023-04-24T13:46:43;13.82;;;13.02;;
25932;SDS011;13731;51.166;4.474;2023-04-24T13:49:11;17.00;;;16.00;;
25932;SDS011;13731;51.166;4.474;2023-04-24T13:51:38;16.90;;;15.82;;
25932;SDS011;13731;51.166;4.474;2023-04-24T13:54:05;16.17;;;15.23;;
25932;SDS011;13731;51.166;4.474;2023-04-24T13:56:31;14.10;;;13.30;;
25932;SDS011;13731;51.166;4.474;2023-04-24T13:58:57;12.45;;;11.65;;
25932;SDS011;13731;51.166;4.474;2023-04-24T14:01:22;12.55;;;11.95;;
25932;SDS011;13731;51.166;4.474;2023-04-24T14:03:51;13.70;;;13.10;;
25932;SDS011;13731;51.166;4.474;2023-04-24T14:06:18;17.75;;;16.95;;
25932;SDS011;13731;51.166;4.474;2023-04-24T14:08:48;14.85;;;14.02;;
25932;SDS011;13731;51.166;4.474;2023-04-24T14:11:15;16.10;;;15.07;;
25932;SDS011;13731;51.166;4.474;2023-04-24T14:13:42;17.73;;;16.90;;
25932;SDS011;13731;51.166;4.474;2023-04-24T14:16:08;19.35;;;18.33;;
25932;SDS011;13731;51.166;4.474;2023-04-24T14:18:35;11.48;;;10.85;;
25932;SDS011;13731;51.166;4.474;2023-04-24T14:21:01;12.48;;;11.75;;
25932;SDS011;13731;51.166;4.474;2023-04-24T14:23:28;13.50;;;12.57;;
25932;SDS011;13731;51.166;4.474;2023-04-24T14:25:54;11.52;;;10.82;;
25932;SDS011;13731;51.166;4.474;2023-04-24T14:28:20;15.23;;;14.35;;
25932;SDS011;13731;51.166;4.474;2023-04-24T14:30:47;15.48;;;14.63;;
25932;SDS011;13731;51.166;4.474;2023-04-24T14:33:13;15.77;;;14.85;;
25932;SDS011;13731;51.166;4.474;2023-04-24T14:35:40;15.65;;;14.60;;
25932;SDS011;13731;51.166;4.474;2023-04-24T14:38:09;14.60;;;13.35;;
25932;SDS011;13731;51.166;4.474;2023-04-24T14:40:36;14.18;;;13.35;;